Seattle, Washington
Current Conditions -  °F | °C
As of 7:53 PM on Saturday 25 Oct 2014 (Local Time) from KBFI Reporting Station
Overcast Overcast  
Wind Chill: 14°   Ceiling: 2300
Heat Index: 14°   Visibility: 10mi
Dew Point: 11°   Wind: 20mph
Humidity: 78%   Direction: 180°S
Pressure: 29.39"   Gusts: 41mph
Location:  47.6°N, 122.32°W
Report Text: KBFI 260253Z 18017G36KT 10SM SCT019 BKN023 OVC100 14/11 A2939 RMK AO2 PK WND 19036/0251 RAE52 PRESRR SLP953 P0004 60019 T01440106 53042
Loading
Personal Weather Stations






























Interactive Weather Map
Tropical Storm Tracking
New forecast layout! Learn more

10-Day Weather Forecast

Advertisements
Track Severe Weather on mobile